sensor_id;sensor_type;location;lat;lon;timestamp;P1;durP1;ratioP1;P2;durP2;ratioP2
2638;SDS011;1329;51.384;7.122;2023-12-20T00:01:30;13.50;;;11.23;;
2638;SDS011;1329;51.384;7.122;2023-12-20T00:04:01;13.90;;;12.40;;
2638;SDS011;1329;51.384;7.122;2023-12-20T00:06:30;13.73;;;12.00;;
2638;SDS011;1329;51.384;7.122;2023-12-20T00:08:58;16.20;;;13.50;;
2638;SDS011;1329;51.384;7.122;2023-12-20T00:11:27;15.63;;;13.13;;
2638;SDS011;1329;51.384;7.122;2023-12-20T00:13:55;16.17;;;13.00;;
2638;SDS011;1329;51.384;7.122;2023-12-20T00:16:23;17.23;;;14.70;;
2638;SDS011;1329;51.384;7.122;2023-12-20T00:18:50;18.13;;;14.60;;
2638;SDS011;1329;51.384;7.122;2023-12-20T00:21:18;17.67;;;14.57;;
2638;SDS011;1329;51.384;7.122;2023-12-20T00:23:45;18.10;;;14.00;;
2638;SDS011;1329;51.384;7.122;2023-12-20T00:26:12;19.40;;;14.43;;
2638;SDS011;1329;51.384;7.122;2023-12-20T00:28:41;17.80;;;14.43;;
2638;SDS011;1329;51.384;7.122;2023-12-20T00:31:09;18.07;;;13.97;;
2638;SDS011;1329;51.384;7.122;2023-12-20T00:33:36;17.47;;;13.90;;
2638;SDS011;1329;51.384;7.122;2023-12-20T00:36:05;17.37;;;13.80;;
2638;SDS011;1329;51.384;7.122;2023-12-20T00:38:33;17.20;;;13.40;;
2638;SDS011;1329;51.384;7.122;2023-12-20T00:41:01;17.23;;;12.77;;
2638;SDS011;1329;51.384;7.122;2023-12-20T00:43:31;16.73;;;13.03;;
2638;SDS011;1329;51.384;7.122;2023-12-20T00:46:00;16.60;;;12.47;;
2638;SDS011;1329;51.384;7.122;2023-12-20T00:48:27;18.43;;;12.60;;
2638;SDS011;1329;51.384;7.122;2023-12-20T00:50:56;14.77;;;12.13;;
2638;SDS011;1329;51.384;7.122;2023-12-20T00:53:24;16.37;;;12.60;;
2638;SDS011;1329;51.384;7.122;2023-12-20T00:55:51;18.57;;;12.40;;
2638;SDS011;1329;51.384;7.122;2023-12-20T00:58:19;16.40;;;12.10;;
2638;SDS011;1329;51.384;7.122;2023-12-20T01:00:46;15.13;;;10.90;;
2638;SDS011;1329;51.384;7.122;2023-12-20T01:03:15;16.73;;;11.70;;
2638;SDS011;1329;51.384;7.122;2023-12-20T01:05:42;16.43;;;11.30;;
2638;SDS011;1329;51.384;7.122;2023-12-20T01:08:10;14.83;;;11.30;;
2638;SDS011;1329;51.384;7.122;2023-12-20T01:10:37;14.50;;;10.70;;
2638;SDS011;1329;51.384;7.122;2023-12-20T01:13:05;14.13;;;10.60;;
2638;SDS011;1329;51.384;7.122;2023-12-20T01:15:34;14.90;;;10.50;;
2638;SDS011;1329;51.384;7.122;2023-12-20T01:18:01;12.30;;;9.87;;
2638;SDS011;1329;51.384;7.122;2023-12-20T01:20:31;15.07;;;9.90;;
2638;SDS011;1329;51.384;7.122;2023-12-20T01:22:58;12.67;;;9.07;;
2638;SDS011;1329;51.384;7.122;2023-12-20T01:25:26;12.27;;;8.43;;
2638;SDS011;1329;51.384;7.122;2023-12-20T01:27:54;10.10;;;7.70;;
2638;SDS011;1329;51.384;7.122;2023-12-20T01:30:21;12.47;;;8.33;;
2638;SDS011;1329;51.384;7.122;2023-12-20T01:32:51;13.97;;;8.27;;
2638;SDS011;1329;51.384;7.122;2023-12-20T01:35:21;13.60;;;8.10;;
2638;SDS011;1329;51.384;7.122;2023-12-20T01:37:49;12.40;;;8.17;;
2638;SDS011;1329;51.384;7.122;2023-12-20T01:40:18;11.03;;;8.13;;
2638;SDS011;1329;51.384;7.122;2023-12-20T01:42:48;12.37;;;8.40;;
2638;SDS011;1329;51.384;7.122;2023-12-20T01:45:26;12.67;;;8.57;;
2638;SDS011;1329;51.384;7.122;2023-12-20T01:47:54;13.53;;;9.30;;
2638;SDS011;1329;51.384;7.122;2023-12-20T01:50:23;12.67;;;9.57;;
2638;SDS011;1329;51.384;7.122;2023-12-20T01:52:53;14.93;;;10.07;;
2638;SDS011;1329;51.384;7.122;2023-12-20T01:55:22;14.83;;;10.37;;
2638;SDS011;1329;51.384;7.122;2023-12-20T01:57:50;11.03;;;9.90;;
2638;SDS011;1329;51.384;7.122;2023-12-20T02:00:18;14.53;;;11.00;;
2638;SDS011;1329;51.384;7.122;2023-12-20T02:02:51;13.80;;;11.23;;
2638;SDS011;1329;51.384;7.122;2023-12-20T02:05:20;14.60;;;11.83;;
2638;SDS011;1329;51.384;7.122;2023-12-20T02:07:48;12.90;;;10.73;;
2638;SDS011;1329;51.384;7.122;2023-12-20T02:10:17;16.70;;;11.20;;
2638;SDS011;1329;51.384;7.122;2023-12-20T02:12:44;16.17;;;11.73;;
2638;SDS011;1329;51.384;7.122;2023-12-20T02:15:12;15.43;;;10.53;;
2638;SDS011;1329;51.384;7.122;2023-12-20T02:17:40;17.30;;;9.90;;
2638;SDS011;1329;51.384;7.122;2023-12-20T02:20:11;13.30;;;9.57;;
2638;SDS011;1329;51.384;7.122;2023-12-20T02:22:39;13.23;;;9.93;;
2638;SDS011;1329;51.384;7.122;2023-12-20T02:25:07;15.63;;;9.67;;
2638;SDS011;1329;51.384;7.122;2023-12-20T02:27:34;14.57;;;9.37;;
2638;SDS011;1329;51.384;7.122;2023-12-20T02:30:02;15.93;;;8.93;;
2638;SDS011;1329;51.384;7.122;2023-12-20T02:32:31;14.10;;;9.57;;
2638;SDS011;1329;51.384;7.122;2023-12-20T02:34:58;15.27;;;9.33;;
2638;SDS011;1329;51.384;7.122;2023-12-20T02:37:25;12.57;;;8.97;;
2638;SDS011;1329;51.384;7.122;2023-12-20T02:39:54;11.73;;;8.30;;
2638;SDS011;1329;51.384;7.122;2023-12-20T02:42:22;11.77;;;8.67;;
2638;SDS011;1329;51.384;7.122;2023-12-20T02:44:50;10.97;;;8.23;;
2638;SDS011;1329;51.384;7.122;2023-12-20T02:47:18;12.63;;;8.30;;
2638;SDS011;1329;51.384;7.122;2023-12-20T02:49:52;12.07;;;8.63;;
2638;SDS011;1329;51.384;7.122;2023-12-20T02:52:21;10.87;;;8.33;;
2638;SDS011;1329;51.384;7.122;2023-12-20T02:54:58;14.33;;;8.70;;
2638;SDS011;1329;51.384;7.122;2023-12-20T02:57:32;15.47;;;8.70;;
2638;SDS011;1329;51.384;7.122;2023-12-20T03:00:01;12.27;;;8.33;;
2638;SDS011;1329;51.384;7.122;2023-12-20T03:02:30;11.37;;;7.93;;
2638;SDS011;1329;51.384;7.122;2023-12-20T03:04:58;17.27;;;8.90;;
2638;SDS011;1329;51.384;7.122;2023-12-20T03:07:32;13.80;;;9.17;;
2638;SDS011;1329;51.384;7.122;2023-12-20T03:10:01;11.63;;;8.67;;
2638;SDS011;1329;51.384;7.122;2023-12-20T03:12:30;11.87;;;8.27;;
2638;SDS011;1329;51.384;7.122;2023-12-20T03:14:58;14.87;;;8.83;;
2638;SDS011;1329;51.384;7.122;2023-12-20T03:17:28;14.17;;;9.30;;
2638;SDS011;1329;51.384;7.122;2023-12-20T03:19:58;12.50;;;9.63;;
2638;SDS011;1329;51.384;7.122;2023-12-20T03:22:29;15.97;;;9.43;;
2638;SDS011;1329;51.384;7.122;2023-12-20T03:24:58;13.37;;;9.97;;
2638;SDS011;1329;51.384;7.122;2023-12-20T03:27:37;17.50;;;11.00;;
2638;SDS011;1329;51.384;7.122;2023-12-20T03:30:05;15.57;;;10.07;;
2638;SDS011;1329;51.384;7.122;2023-12-20T03:32:35;15.10;;;10.27;;
2638;SDS011;1329;51.384;7.122;2023-12-20T03:35:05;12.60;;;9.47;;
2638;SDS011;1329;51.384;7.122;2023-12-20T03:37:40;12.60;;;10.27;;
2638;SDS011;1329;51.384;7.122;2023-12-20T03:40:10;14.13;;;11.47;;
2638;SDS011;1329;51.384;7.122;2023-12-20T03:42:38;16.43;;;11.87;;
2638;SDS011;1329;51.384;7.122;2023-12-20T03:45:18;16.60;;;10.73;;
2638;SDS011;1329;51.384;7.122;2023-12-20T03:47:46;11.60;;;10.40;;
2638;SDS011;1329;51.384;7.122;2023-12-20T03:50:15;14.97;;;11.13;;
2638;SDS011;1329;51.384;7.122;2023-12-20T03:52:44;15.47;;;11.57;;
2638;SDS011;1329;51.384;7.122;2023-12-20T03:55:14;16.17;;;11.40;;
2638;SDS011;1329;51.384;7.122;2023-12-20T03:57:42;14.37;;;10.97;;
2638;SDS011;1329;51.384;7.122;2023-12-20T04:00:10;14.50;;;10.93;;
2638;SDS011;1329;51.384;7.122;2023-12-20T04:02:39;13.63;;;10.70;;
2638;SDS011;1329;51.384;7.122;2023-12-20T04:05:11;15.17;;;9.53;;
2638;SDS011;1329;51.384;7.122;2023-12-20T04:07:38;15.67;;;9.90;;
2638;SDS011;1329;51.384;7.122;2023-12-20T04:10:07;15.53;;;9.37;;
2638;SDS011;1329;51.384;7.122;2023-12-20T04:12:37;12.57;;;9.87;;
2638;SDS011;1329;51.384;7.122;2023-12-20T04:15:07;16.73;;;8.73;;
2638;SDS011;1329;51.384;7.122;2023-12-20T04:17:39;12.40;;;8.97;;
2638;SDS011;1329;51.384;7.122;2023-12-20T04:20:07;12.20;;;8.33;;
2638;SDS011;1329;51.384;7.122;2023-12-20T04:22:36;13.20;;;7.90;;
2638;SDS011;1329;51.384;7.122;2023-12-20T04:25:04;14.13;;;7.77;;
2638;SDS011;1329;51.384;7.122;2023-12-20T04:27:33;13.13;;;8.20;;
2638;SDS011;1329;51.384;7.122;2023-12-20T04:30:07;15.97;;;8.97;;
2638;SDS011;1329;51.384;7.122;2023-12-20T04:32:35;12.03;;;8.20;;
2638;SDS011;1329;51.384;7.122;2023-12-20T04:35:05;13.07;;;8.40;;
2638;SDS011;1329;51.384;7.122;2023-12-20T04:37:39;13.03;;;8.37;;
2638;SDS011;1329;51.384;7.122;2023-12-20T04:40:14;16.97;;;8.60;;
2638;SDS011;1329;51.384;7.122;2023-12-20T04:42:44;15.03;;;8.50;;
2638;SDS011;1329;51.384;7.122;2023-12-20T04:45:12;12.63;;;8.50;;
2638;SDS011;1329;51.384;7.122;2023-12-20T04:47:44;13.10;;;8.30;;
2638;SDS011;1329;51.384;7.122;2023-12-20T04:50:15;13.63;;;8.47;;
2638;SDS011;1329;51.384;7.122;2023-12-20T04:52:45;13.27;;;8.80;;
2638;SDS011;1329;51.384;7.122;2023-12-20T04:55:13;12.63;;;8.43;;
2638;SDS011;1329;51.384;7.122;2023-12-20T04:57:41;13.10;;;8.03;;
2638;SDS011;1329;51.384;7.122;2023-12-20T05:00:30;12.93;;;7.90;;
2638;SDS011;1329;51.384;7.122;2023-12-20T05:02:57;12.13;;;8.33;;
2638;SDS011;1329;51.384;7.122;2023-12-20T05:05:25;13.90;;;8.43;;
2638;SDS011;1329;51.384;7.122;2023-12-20T05:07:53;13.10;;;7.73;;
2638;SDS011;1329;51.384;7.122;2023-12-20T05:10:21;14.37;;;8.43;;
2638;SDS011;1329;51.384;7.122;2023-12-20T05:13:03;13.47;;;8.77;;
2638;SDS011;1329;51.384;7.122;2023-12-20T05:15:34;12.37;;;7.90;;
2638;SDS011;1329;51.384;7.122;2023-12-20T05:18:05;14.33;;;9.43;;
2638;SDS011;1329;51.384;7.122;2023-12-20T05:20:36;15.73;;;10.13;;
2638;SDS011;1329;51.384;7.122;2023-12-20T05:23:04;16.37;;;10.23;;
2638;SDS011;1329;51.384;7.122;2023-12-20T05:25:35;13.97;;;10.00;;
2638;SDS011;1329;51.384;7.122;2023-12-20T05:28:07;18.67;;;10.33;;
2638;SDS011;1329;51.384;7.122;2023-12-20T05:30:35;16.87;;;9.73;;
2638;SDS011;1329;51.384;7.122;2023-12-20T05:33:06;17.87;;;10.87;;
2638;SDS011;1329;51.384;7.122;2023-12-20T05:35:34;14.63;;;10.30;;
2638;SDS011;1329;51.384;7.122;2023-12-20T05:38:05;16.50;;;10.83;;
2638;SDS011;1329;51.384;7.122;2023-12-20T05:40:34;16.50;;;10.97;;
2638;SDS011;1329;51.384;7.122;2023-12-20T05:43:08;17.90;;;11.23;;
2638;SDS011;1329;51.384;7.122;2023-12-20T05:45:36;14.47;;;10.00;;
2638;SDS011;1329;51.384;7.122;2023-12-20T05:48:04;17.77;;;10.50;;
2638;SDS011;1329;51.384;7.122;2023-12-20T05:50:33;13.00;;;9.80;;
2638;SDS011;1329;51.384;7.122;2023-12-20T05:53:04;15.80;;;10.33;;
2638;SDS011;1329;51.384;7.122;2023-12-20T05:55:33;15.47;;;10.20;;
2638;SDS011;1329;51.384;7.122;2023-12-20T05:58:09;16.63;;;10.80;;
2638;SDS011;1329;51.384;7.122;2023-12-20T06:00:39;17.00;;;10.27;;
2638;SDS011;1329;51.384;7.122;2023-12-20T06:03:07;14.77;;;10.30;;
2638;SDS011;1329;51.384;7.122;2023-12-20T06:05:34;14.60;;;9.73;;
2638;SDS011;1329;51.384;7.122;2023-12-20T06:08:02;16.60;;;10.30;;
2638;SDS011;1329;51.384;7.122;2023-12-20T06:10:30;14.23;;;9.37;;
2638;SDS011;1329;51.384;7.122;2023-12-20T06:13:01;13.73;;;8.70;;
2638;SDS011;1329;51.384;7.122;2023-12-20T06:15:31;13.27;;;9.00;;
2638;SDS011;1329;51.384;7.122;2023-12-20T06:17:59;13.93;;;9.00;;
2638;SDS011;1329;51.384;7.122;2023-12-20T06:20:27;18.77;;;9.27;;
2638;SDS011;1329;51.384;7.122;2023-12-20T06:22:55;13.83;;;7.87;;
2638;SDS011;1329;51.384;7.122;2023-12-20T06:25:23;14.00;;;7.83;;
2638;SDS011;1329;51.384;7.122;2023-12-20T06:27:52;15.27;;;8.83;;
2638;SDS011;1329;51.384;7.122;2023-12-20T06:30:23;18.20;;;8.83;;
2638;SDS011;1329;51.384;7.122;2023-12-20T06:32:54;15.83;;;8.47;;
2638;SDS011;1329;51.384;7.122;2023-12-20T06:35:25;12.90;;;7.70;;
2638;SDS011;1329;51.384;7.122;2023-12-20T06:37:55;12.50;;;7.97;;
2638;SDS011;1329;51.384;7.122;2023-12-20T06:40:23;14.90;;;8.20;;
2638;SDS011;1329;51.384;7.122;2023-12-20T06:42:51;15.97;;;8.57;;
2638;SDS011;1329;51.384;7.122;2023-12-20T06:45:22;15.33;;;9.20;;
2638;SDS011;1329;51.384;7.122;2023-12-20T06:47:55;12.23;;;8.40;;
2638;SDS011;1329;51.384;7.122;2023-12-20T06:50:28;14.43;;;8.33;;
2638;SDS011;1329;51.384;7.122;2023-12-20T06:52:56;16.40;;;8.67;;
2638;SDS011;1329;51.384;7.122;2023-12-20T06:55:23;15.30;;;9.20;;
2638;SDS011;1329;51.384;7.122;2023-12-20T06:57:51;12.63;;;8.70;;
2638;SDS011;1329;51.384;7.122;2023-12-20T07:00:19;13.13;;;8.77;;
2638;SDS011;1329;51.384;7.122;2023-12-20T07:02:47;15.93;;;8.83;;
2638;SDS011;1329;51.384;7.122;2023-12-20T07:05:19;12.03;;;8.60;;
2638;SDS011;1329;51.384;7.122;2023-12-20T07:07:47;17.20;;;8.57;;
2638;SDS011;1329;51.384;7.122;2023-12-20T07:10:15;14.57;;;8.30;;
2638;SDS011;1329;51.384;7.122;2023-12-20T07:12:42;17.27;;;8.33;;
2638;SDS011;1329;51.384;7.122;2023-12-20T07:15:10;12.83;;;8.33;;
2638;SDS011;1329;51.384;7.122;2023-12-20T07:17:38;16.10;;;7.80;;
2638;SDS011;1329;51.384;7.122;2023-12-20T07:20:08;16.33;;;8.53;;
2638;SDS011;1329;51.384;7.122;2023-12-20T07:22:41;20.73;;;9.63;;
2638;SDS011;1329;51.384;7.122;2023-12-20T07:25:17;25.13;;;11.80;;
2638;SDS011;1329;51.384;7.122;2023-12-20T07:27:50;25.50;;;12.87;;
2638;SDS011;1329;51.384;7.122;2023-12-20T07:30:18;25.77;;;11.30;;
2638;SDS011;1329;51.384;7.122;2023-12-20T07:32:46;18.67;;;10.07;;
2638;SDS011;1329;51.384;7.122;2023-12-20T07:35:14;15.40;;;8.20;;
2638;SDS011;1329;51.384;7.122;2023-12-20T07:37:48;15.37;;;8.93;;
2638;SDS011;1329;51.384;7.122;2023-12-20T07:40:18;14.93;;;9.20;;
2638;SDS011;1329;51.384;7.122;2023-12-20T07:42:51;17.17;;;8.93;;
2638;SDS011;1329;51.384;7.122;2023-12-20T07:45:18;12.07;;;8.37;;
2638;SDS011;1329;51.384;7.122;2023-12-20T07:47:48;14.93;;;8.63;;
2638;SDS011;1329;51.384;7.122;2023-12-20T07:50:15;15.43;;;8.20;;
2638;SDS011;1329;51.384;7.122;2023-12-20T07:52:43;15.80;;;8.53;;
2638;SDS011;1329;51.384;7.122;2023-12-20T07:55:12;15.03;;;8.30;;
2638;SDS011;1329;51.384;7.122;2023-12-20T07:57:40;11.13;;;7.93;;
2638;SDS011;1329;51.384;7.122;2023-12-20T08:00:08;12.07;;;7.63;;
2638;SDS011;1329;51.384;7.122;2023-12-20T08:02:37;12.97;;;7.93;;
2638;SDS011;1329;51.384;7.122;2023-12-20T08:05:05;17.10;;;8.83;;
2638;SDS011;1329;51.384;7.122;2023-12-20T08:07:34;14.37;;;8.23;;
2638;SDS011;1329;51.384;7.122;2023-12-20T08:10:03;15.63;;;7.77;;
2638;SDS011;1329;51.384;7.122;2023-12-20T08:12:32;11.77;;;7.90;;
2638;SDS011;1329;51.384;7.122;2023-12-20T08:15:01;12.23;;;7.83;;
2638;SDS011;1329;51.384;7.122;2023-12-20T08:17:29;11.87;;;7.73;;
2638;SDS011;1329;51.384;7.122;2023-12-20T08:19:56;9.40;;;7.10;;
2638;SDS011;1329;51.384;7.122;2023-12-20T08:22:25;12.40;;;7.50;;
2638;SDS011;1329;51.384;7.122;2023-12-20T08:24:52;13.70;;;7.33;;
2638;SDS011;1329;51.384;7.122;2023-12-20T08:27:21;13.97;;;7.70;;
2638;SDS011;1329;51.384;7.122;2023-12-20T08:29:51;13.83;;;8.17;;
2638;SDS011;1329;51.384;7.122;2023-12-20T08:32:18;11.80;;;7.67;;
2638;SDS011;1329;51.384;7.122;2023-12-20T08:34:46;13.80;;;8.07;;
2638;SDS011;1329;51.384;7.122;2023-12-20T08:37:13;15.63;;;8.57;;
2638;SDS011;1329;51.384;7.122;2023-12-20T08:39:40;14.97;;;7.80;;
2638;SDS011;1329;51.384;7.122;2023-12-20T08:42:09;14.30;;;7.50;;
2638;SDS011;1329;51.384;7.122;2023-12-20T08:44:38;12.53;;;7.63;;
2638;SDS011;1329;51.384;7.122;2023-12-20T08:47:06;14.97;;;7.83;;
2638;SDS011;1329;51.384;7.122;2023-12-20T08:49:38;13.43;;;7.40;;
2638;SDS011;1329;51.384;7.122;2023-12-20T08:52:06;14.47;;;7.00;;
2638;SDS011;1329;51.384;7.122;2023-12-20T08:54:33;16.00;;;8.60;;
2638;SDS011;1329;51.384;7.122;2023-12-20T08:57:01;13.17;;;7.70;;
2638;SDS011;1329;51.384;7.122;2023-12-20T08:59:31;12.50;;;7.63;;
2638;SDS011;1329;51.384;7.122;2023-12-20T09:02:01;13.63;;;7.40;;
2638;SDS011;1329;51.384;7.122;2023-12-20T09:04:29;13.57;;;7.93;;
2638;SDS011;1329;51.384;7.122;2023-12-20T09:06:59;16.13;;;7.93;;
2638;SDS011;1329;51.384;7.122;2023-12-20T09:09:27;12.93;;;7.43;;
2638;SDS011;1329;51.384;7.122;2023-12-20T09:11:57;14.70;;;7.07;;
2638;SDS011;1329;51.384;7.122;2023-12-20T09:14:25;12.57;;;7.10;;
2638;SDS011;1329;51.384;7.122;2023-12-20T09:16:57;12.47;;;6.50;;
2638;SDS011;1329;51.384;7.122;2023-12-20T09:19:31;14.60;;;6.80;;
2638;SDS011;1329;51.384;7.122;2023-12-20T09:22:02;11.53;;;6.30;;
2638;SDS011;1329;51.384;7.122;2023-12-20T09:24:30;12.80;;;6.47;;
2638;SDS011;1329;51.384;7.122;2023-12-20T09:26:58;12.00;;;6.23;;
2638;SDS011;1329;51.384;7.122;2023-12-20T09:29:26;11.47;;;6.10;;
2638;SDS011;1329;51.384;7.122;2023-12-20T09:31:53;11.90;;;5.77;;
2638;SDS011;1329;51.384;7.122;2023-12-20T09:34:25;11.90;;;6.03;;
2638;SDS011;1329;51.384;7.122;2023-12-20T09:36:54;8.70;;;5.43;;
2638;SDS011;1329;51.384;7.122;2023-12-20T09:39:22;12.47;;;5.50;;
2638;SDS011;1329;51.384;7.122;2023-12-20T09:41:55;11.87;;;5.03;;
2638;SDS011;1329;51.384;7.122;2023-12-20T09:44:28;8.10;;;4.90;;
2638;SDS011;1329;51.384;7.122;2023-12-20T09:46:56;10.87;;;5.47;;
2638;SDS011;1329;51.384;7.122;2023-12-20T09:49:24;11.37;;;5.10;;
2638;SDS011;1329;51.384;7.122;2023-12-20T09:51:55;12.83;;;5.93;;
2638;SDS011;1329;51.384;7.122;2023-12-20T09:54:23;11.00;;;5.47;;
2638;SDS011;1329;51.384;7.122;2023-12-20T09:56:51;12.23;;;5.80;;
2638;SDS011;1329;51.384;7.122;2023-12-20T09:59:27;9.80;;;5.47;;
2638;SDS011;1329;51.384;7.122;2023-12-20T10:01:56;10.03;;;5.43;;
2638;SDS011;1329;51.384;7.122;2023-12-20T10:04:24;12.50;;;5.60;;
2638;SDS011;1329;51.384;7.122;2023-12-20T10:06:52;10.27;;;5.07;;
2638;SDS011;1329;51.384;7.122;2023-12-20T10:09:29;11.60;;;5.13;;
2638;SDS011;1329;51.384;7.122;2023-12-20T10:11:59;11.87;;;4.87;;
2638;SDS011;1329;51.384;7.122;2023-12-20T10:14:27;10.37;;;5.40;;
2638;SDS011;1329;51.384;7.122;2023-12-20T10:17:00;10.43;;;5.37;;
2638;SDS011;1329;51.384;7.122;2023-12-20T10:19:29;10.97;;;5.30;;
2638;SDS011;1329;51.384;7.122;2023-12-20T10:21:58;11.03;;;5.10;;
2638;SDS011;1329;51.384;7.122;2023-12-20T10:24:28;15.20;;;5.47;;
2638;SDS011;1329;51.384;7.122;2023-12-20T10:27:02;11.00;;;5.17;;
2638;SDS011;1329;51.384;7.122;2023-12-20T10:29:34;11.53;;;5.50;;
2638;SDS011;1329;51.384;7.122;2023-12-20T10:34:50;8.37;;;4.63;;
2638;SDS011;1329;51.384;7.122;2023-12-20T10:37:19;10.33;;;4.97;;
2638;SDS011;1329;51.384;7.122;2023-12-20T10:39:48;12.33;;;4.73;;
2638;SDS011;1329;51.384;7.122;2023-12-20T10:42:21;11.73;;;5.03;;
2638;SDS011;1329;51.384;7.122;2023-12-20T10:44:50;10.00;;;4.90;;
2638;SDS011;1329;51.384;7.122;2023-12-20T10:47:19;12.97;;;5.03;;
2638;SDS011;1329;51.384;7.122;2023-12-20T10:49:46;13.53;;;5.57;;
2638;SDS011;1329;51.384;7.122;2023-12-20T10:52:14;9.87;;;4.80;;
2638;SDS011;1329;51.384;7.122;2023-12-20T10:54:45;10.33;;;4.97;;
2638;SDS011;1329;51.384;7.122;2023-12-20T10:57:13;10.00;;;4.73;;
2638;SDS011;1329;51.384;7.122;2023-12-20T10:59:45;11.23;;;5.50;;
2638;SDS011;1329;51.384;7.122;2023-12-20T11:02:16;11.63;;;5.47;;
2638;SDS011;1329;51.384;7.122;2023-12-20T11:04:47;9.87;;;4.73;;
2638;SDS011;1329;51.384;7.122;2023-12-20T11:07:24;8.23;;;4.80;;
2638;SDS011;1329;51.384;7.122;2023-12-20T11:10:03;12.53;;;5.10;;
2638;SDS011;1329;51.384;7.122;2023-12-20T11:12:43;12.90;;;5.20;;
2638;SDS011;1329;51.384;7.122;2023-12-20T11:15:16;14.37;;;5.80;;
2638;SDS011;1329;51.384;7.122;2023-12-20T11:17:44;9.97;;;4.97;;
2638;SDS011;1329;51.384;7.122;2023-12-20T11:20:12;10.07;;;5.27;;
2638;SDS011;1329;51.384;7.122;2023-12-20T11:22:53;12.60;;;4.80;;
2638;SDS011;1329;51.384;7.122;2023-12-20T11:25:21;10.13;;;5.23;;
2638;SDS011;1329;51.384;7.122;2023-12-20T11:30:42;12.00;;;5.70;;
2638;SDS011;1329;51.384;7.122;2023-12-20T11:33:13;14.90;;;5.90;;
2638;SDS011;1329;51.384;7.122;2023-12-20T11:35:42;9.60;;;5.30;;
2638;SDS011;1329;51.384;7.122;2023-12-20T11:38:13;9.77;;;4.93;;
2638;SDS011;1329;51.384;7.122;2023-12-20T11:40:41;8.43;;;5.33;;
2638;SDS011;1329;51.384;7.122;2023-12-20T11:43:10;12.27;;;5.40;;
2638;SDS011;1329;51.384;7.122;2023-12-20T11:45:38;11.33;;;5.60;;
2638;SDS011;1329;51.384;7.122;2023-12-20T11:48:17;10.47;;;5.60;;
2638;SDS011;1329;51.384;7.122;2023-12-20T11:50:45;12.20;;;5.60;;
2638;SDS011;1329;51.384;7.122;2023-12-20T11:53:14;10.70;;;5.57;;
2638;SDS011;1329;51.384;7.122;2023-12-20T11:55:47;13.63;;;5.60;;
2638;SDS011;1329;51.384;7.122;2023-12-20T11:58:15;10.77;;;5.20;;
2638;SDS011;1329;51.384;7.122;2023-12-20T12:00:44;14.33;;;5.90;;
2638;SDS011;1329;51.384;7.122;2023-12-20T12:03:14;12.47;;;5.33;;
2638;SDS011;1329;51.384;7.122;2023-12-20T12:05:42;12.83;;;5.33;;
2638;SDS011;1329;51.384;7.122;2023-12-20T12:08:09;9.37;;;5.13;;
2638;SDS011;1329;51.384;7.122;2023-12-20T12:10:38;10.20;;;4.93;;
2638;SDS011;1329;51.384;7.122;2023-12-20T12:13:06;13.77;;;5.37;;
2638;SDS011;1329;51.384;7.122;2023-12-20T12:15:35;9.90;;;5.63;;
2638;SDS011;1329;51.384;7.122;2023-12-20T12:18:04;10.63;;;5.37;;
2638;SDS011;1329;51.384;7.122;2023-12-20T12:20:32;10.37;;;5.10;;
2638;SDS011;1329;51.384;7.122;2023-12-20T12:23:01;9.27;;;5.20;;
2638;SDS011;1329;51.384;7.122;2023-12-20T12:25:30;10.23;;;5.33;;
2638;SDS011;1329;51.384;7.122;2023-12-20T12:28:01;8.63;;;5.47;;
2638;SDS011;1329;51.384;7.122;2023-12-20T12:30:29;10.53;;;5.33;;
2638;SDS011;1329;51.384;7.122;2023-12-20T12:32:57;8.30;;;5.03;;
2638;SDS011;1329;51.384;7.122;2023-12-20T12:35:24;9.20;;;5.20;;
2638;SDS011;1329;51.384;7.122;2023-12-20T12:37:54;9.73;;;5.57;;
2638;SDS011;1329;51.384;7.122;2023-12-20T12:40:28;10.97;;;6.03;;
2638;SDS011;1329;51.384;7.122;2023-12-20T12:42:56;9.60;;;5.23;;
2638;SDS011;1329;51.384;7.122;2023-12-20T12:45:25;13.10;;;5.70;;
2638;SDS011;1329;51.384;7.122;2023-12-20T12:47:52;11.83;;;5.63;;
2638;SDS011;1329;51.384;7.122;2023-12-20T12:50:21;11.53;;;5.07;;
2638;SDS011;1329;51.384;7.122;2023-12-20T12:52:53;10.70;;;4.93;;
2638;SDS011;1329;51.384;7.122;2023-12-20T12:55:21;10.80;;;5.33;;
2638;SDS011;1329;51.384;7.122;2023-12-20T12:57:49;9.53;;;5.20;;
2638;SDS011;1329;51.384;7.122;2023-12-20T13:00:17;7.27;;;5.13;;
2638;SDS011;1329;51.384;7.122;2023-12-20T13:02:48;11.27;;;5.50;;
2638;SDS011;1329;51.384;7.122;2023-12-20T13:05:17;11.93;;;6.40;;
2638;SDS011;1329;51.384;7.122;2023-12-20T13:07:44;11.13;;;5.33;;
2638;SDS011;1329;51.384;7.122;2023-12-20T13:10:13;8.20;;;5.80;;
2638;SDS011;1329;51.384;7.122;2023-12-20T13:12:41;9.00;;;5.23;;
2638;SDS011;1329;51.384;7.122;2023-12-20T13:15:09;13.77;;;6.83;;
2638;SDS011;1329;51.384;7.122;2023-12-20T13:17:37;13.13;;;6.43;;
2638;SDS011;1329;51.384;7.122;2023-12-20T13:20:07;12.30;;;6.00;;
2638;SDS011;1329;51.384;7.122;2023-12-20T13:22:35;10.17;;;6.13;;
2638;SDS011;1329;51.384;7.122;2023-12-20T13:25:04;8.37;;;6.27;;
2638;SDS011;1329;51.384;7.122;2023-12-20T13:27:33;7.73;;;5.47;;
2638;SDS011;1329;51.384;7.122;2023-12-20T13:30:01;9.73;;;5.37;;
2638;SDS011;1329;51.384;7.122;2023-12-20T13:32:30;11.00;;;5.80;;
2638;SDS011;1329;51.384;7.122;2023-12-20T13:35:05;8.33;;;5.60;;
2638;SDS011;1329;51.384;7.122;2023-12-20T13:37:36;10.00;;;5.60;;
2638;SDS011;1329;51.384;7.122;2023-12-20T13:40:06;11.73;;;6.30;;
2638;SDS011;1329;51.384;7.122;2023-12-20T13:42:34;12.07;;;6.03;;
2638;SDS011;1329;51.384;7.122;2023-12-20T13:45:02;11.77;;;6.63;;
2638;SDS011;1329;51.384;7.122;2023-12-20T13:47:31;8.40;;;5.50;;
2638;SDS011;1329;51.384;7.122;2023-12-20T13:50:00;9.93;;;6.33;;
2638;SDS011;1329;51.384;7.122;2023-12-20T13:52:33;8.67;;;5.77;;
2638;SDS011;1329;51.384;7.122;2023-12-20T13:55:01;9.23;;;5.90;;
2638;SDS011;1329;51.384;7.122;2023-12-20T13:57:33;8.80;;;6.37;;
2638;SDS011;1329;51.384;7.122;2023-12-20T14:00:03;9.07;;;6.30;;
2638;SDS011;1329;51.384;7.122;2023-12-20T14:02:37;10.90;;;6.63;;
2638;SDS011;1329;51.384;7.122;2023-12-20T14:05:07;8.40;;;6.13;;
2638;SDS011;1329;51.384;7.122;2023-12-20T14:07:37;7.90;;;5.47;;
2638;SDS011;1329;51.384;7.122;2023-12-20T14:10:05;7.40;;;5.90;;
2638;SDS011;1329;51.384;7.122;2023-12-20T14:12:33;7.90;;;5.90;;
2638;SDS011;1329;51.384;7.122;2023-12-20T14:15:03;8.30;;;6.30;;
2638;SDS011;1329;51.384;7.122;2023-12-20T14:17:36;7.57;;;6.20;;
2638;SDS011;1329;51.384;7.122;2023-12-20T14:20:04;7.90;;;6.03;;
2638;SDS011;1329;51.384;7.122;2023-12-20T14:22:33;7.30;;;6.20;;
2638;SDS011;1329;51.384;7.122;2023-12-20T14:25:02;9.07;;;6.43;;
2638;SDS011;1329;51.384;7.122;2023-12-20T14:27:31;8.97;;;6.77;;
2638;SDS011;1329;51.384;7.122;2023-12-20T14:30:05;11.13;;;7.00;;
2638;SDS011;1329;51.384;7.122;2023-12-20T14:32:39;10.43;;;6.47;;
2638;SDS011;1329;51.384;7.122;2023-12-20T14:35:07;11.80;;;7.57;;
2638;SDS011;1329;51.384;7.122;2023-12-20T14:37:36;10.83;;;7.83;;
2638;SDS011;1329;51.384;7.122;2023-12-20T14:40:08;9.97;;;7.83;;
2638;SDS011;1329;51.384;7.122;2023-12-20T14:42:41;11.17;;;7.30;;
2638;SDS011;1329;51.384;7.122;2023-12-20T14:45:13;10.03;;;7.57;;
2638;SDS011;1329;51.384;7.122;2023-12-20T14:47:41;9.30;;;7.53;;
2638;SDS011;1329;51.384;7.122;2023-12-20T14:50:27;9.67;;;7.57;;
2638;SDS011;1329;51.384;7.122;2023-12-20T14:52:55;13.87;;;7.60;;
2638;SDS011;1329;51.384;7.122;2023-12-20T14:55:24;10.47;;;7.73;;
2638;SDS011;1329;51.384;7.122;2023-12-20T14:57:54;13.20;;;8.10;;
2638;SDS011;1329;51.384;7.122;2023-12-20T15:00:35;11.40;;;7.63;;
2638;SDS011;1329;51.384;7.122;2023-12-20T15:03:03;11.73;;;7.90;;
2638;SDS011;1329;51.384;7.122;2023-12-20T15:05:32;12.80;;;7.93;;
2638;SDS011;1329;51.384;7.122;2023-12-20T15:08:01;11.43;;;7.30;;
2638;SDS011;1329;51.384;7.122;2023-12-20T15:10:30;9.23;;;7.13;;
2638;SDS011;1329;51.384;7.122;2023-12-20T15:12:57;10.10;;;7.40;;
2638;SDS011;1329;51.384;7.122;2023-12-20T15:15:25;11.07;;;7.63;;
2638;SDS011;1329;51.384;7.122;2023-12-20T15:17:54;15.70;;;7.60;;
2638;SDS011;1329;51.384;7.122;2023-12-20T15:20:21;10.20;;;6.97;;